sensor_id;sensor_type;location;lat;lon;timestamp;P1;durP1;ratioP1;P2;durP2;ratioP2
8885;SDS011;4479;51.162;13.906;2023-03-01T00:08:12;9.23;;;5.93;;
8885;SDS011;4479;51.162;13.906;2023-03-01T00:18:16;8.73;;;6.03;;
8885;SDS011;4479;51.162;13.906;2023-03-01T00:28:18;8.03;;;5.70;;
8885;SDS011;4479;51.162;13.906;2023-03-01T00:38:22;10.10;;;6.23;;
8885;SDS011;4479;51.162;13.906;2023-03-01T00:48:23;8.03;;;5.50;;
8885;SDS011;4479;51.162;13.906;2023-03-01T00:58:27;7.43;;;5.23;;
8885;SDS011;4479;51.162;13.906;2023-03-01T01:08:29;9.20;;;6.10;;
8885;SDS011;4479;51.162;13.906;2023-03-01T01:18:33;9.53;;;5.37;;
8885;SDS011;4479;51.162;13.906;2023-03-01T01:28:35;9.80;;;5.93;;
8885;SDS011;4479;51.162;13.906;2023-03-01T01:38:39;10.50;;;5.93;;
8885;SDS011;4479;51.162;13.906;2023-03-01T01:48:43;11.50;;;5.53;;
8885;SDS011;4479;51.162;13.906;2023-03-01T01:58:51;8.90;;;5.87;;
8885;SDS011;4479;51.162;13.906;2023-03-01T02:08:54;10.53;;;6.17;;
8885;SDS011;4479;51.162;13.906;2023-03-01T02:19:01;10.17;;;6.13;;
8885;SDS011;4479;51.162;13.906;2023-03-01T02:29:07;10.67;;;6.60;;
8885;SDS011;4479;51.162;13.906;2023-03-01T02:39:12;10.93;;;6.67;;
8885;SDS011;4479;51.162;13.906;2023-03-01T02:49:20;9.60;;;6.33;;
8885;SDS011;4479;51.162;13.906;2023-03-01T02:59:27;11.40;;;6.57;;
8885;SDS011;4479;51.162;13.906;2023-03-01T03:09:35;9.53;;;6.17;;
8885;SDS011;4479;51.162;13.906;2023-03-01T03:19:38;9.10;;;6.03;;
8885;SDS011;4479;51.162;13.906;2023-03-01T03:29:41;9.73;;;6.40;;
8885;SDS011;4479;51.162;13.906;2023-03-01T03:39:44;9.30;;;6.10;;
8885;SDS011;4479;51.162;13.906;2023-03-01T03:49:48;10.30;;;6.77;;
8885;SDS011;4479;51.162;13.906;2023-03-01T03:59:50;9.47;;;5.87;;
8885;SDS011;4479;51.162;13.906;2023-03-01T04:09:53;10.40;;;6.33;;
8885;SDS011;4479;51.162;13.906;2023-03-01T04:19:55;9.97;;;6.30;;
8885;SDS011;4479;51.162;13.906;2023-03-01T04:30:00;9.83;;;6.40;;
8885;SDS011;4479;51.162;13.906;2023-03-01T04:40:03;8.53;;;6.27;;
8885;SDS011;4479;51.162;13.906;2023-03-01T04:50:15;9.53;;;6.40;;
8885;SDS011;4479;51.162;13.906;2023-03-01T05:00:20;12.03;;;7.13;;
8885;SDS011;4479;51.162;13.906;2023-03-01T05:10:25;12.10;;;6.80;;
8885;SDS011;4479;51.162;13.906;2023-03-01T05:20:30;10.13;;;6.87;;
8885;SDS011;4479;51.162;13.906;2023-03-01T05:30:33;11.00;;;6.70;;
8885;SDS011;4479;51.162;13.906;2023-03-01T05:40:36;10.80;;;6.60;;
8885;SDS011;4479;51.162;13.906;2023-03-01T05:50:40;12.13;;;8.27;;
8885;SDS011;4479;51.162;13.906;2023-03-01T06:00:44;13.47;;;7.80;;
8885;SDS011;4479;51.162;13.906;2023-03-01T06:10:49;13.67;;;8.10;;
8885;SDS011;4479;51.162;13.906;2023-03-01T06:20:54;14.37;;;8.93;;
8885;SDS011;4479;51.162;13.906;2023-03-01T06:30:59;15.33;;;8.20;;
8885;SDS011;4479;51.162;13.906;2023-03-01T06:41:01;14.50;;;8.30;;
8885;SDS011;4479;51.162;13.906;2023-03-01T06:51:05;15.17;;;9.37;;
8885;SDS011;4479;51.162;13.906;2023-03-01T07:01:07;19.00;;;11.23;;
8885;SDS011;4479;51.162;13.906;2023-03-01T07:11:11;20.10;;;11.27;;
8885;SDS011;4479;51.162;13.906;2023-03-01T07:21:13;20.23;;;11.77;;
8885;SDS011;4479;51.162;13.906;2023-03-01T07:31:17;19.10;;;11.00;;
8885;SDS011;4479;51.162;13.906;2023-03-01T07:41:19;16.40;;;10.50;;
8885;SDS011;4479;51.162;13.906;2023-03-01T07:51:23;16.97;;;10.13;;
8885;SDS011;4479;51.162;13.906;2023-03-01T08:01:25;19.00;;;11.70;;
8885;SDS011;4479;51.162;13.906;2023-03-01T08:11:29;16.63;;;10.97;;
8885;SDS011;4479;51.162;13.906;2023-03-01T08:21:31;18.60;;;11.13;;
8885;SDS011;4479;51.162;13.906;2023-03-01T08:31:36;20.80;;;12.13;;
8885;SDS011;4479;51.162;13.906;2023-03-01T08:41:40;22.23;;;12.77;;
8885;SDS011;4479;51.162;13.906;2023-03-01T08:51:44;18.90;;;12.23;;
8885;SDS011;4479;51.162;13.906;2023-03-01T09:01:48;20.70;;;13.20;;
8885;SDS011;4479;51.162;13.906;2023-03-01T09:11:52;17.63;;;10.20;;
8885;SDS011;4479;51.162;13.906;2023-03-01T09:21:54;19.40;;;11.67;;
8885;SDS011;4479;51.162;13.906;2023-03-01T09:31:59;19.70;;;12.27;;
8885;SDS011;4479;51.162;13.906;2023-03-01T09:42:02;19.37;;;12.17;;
8885;SDS011;4479;51.162;13.906;2023-03-01T09:52:09;18.60;;;10.67;;
8885;SDS011;4479;51.162;13.906;2023-03-01T10:02:23;18.33;;;10.97;;
8885;SDS011;4479;51.162;13.906;2023-03-01T10:12:34;19.03;;;11.70;;
8885;SDS011;4479;51.162;13.906;2023-03-01T10:22:40;19.67;;;12.80;;
8885;SDS011;4479;51.162;13.906;2023-03-01T10:32:48;20.33;;;12.67;;
8885;SDS011;4479;51.162;13.906;2023-03-01T10:42:52;17.70;;;12.13;;
8885;SDS011;4479;51.162;13.906;2023-03-01T10:52:58;16.50;;;11.57;;
8885;SDS011;4479;51.162;13.906;2023-03-01T11:03:04;21.50;;;14.17;;
8885;SDS011;4479;51.162;13.906;2023-03-01T11:13:15;22.67;;;14.90;;
8885;SDS011;4479;51.162;13.906;2023-03-01T11:23:19;23.93;;;16.33;;
8885;SDS011;4479;51.162;13.906;2023-03-01T11:33:30;22.97;;;15.77;;
8885;SDS011;4479;51.162;13.906;2023-03-01T11:43:41;20.37;;;14.40;;
8885;SDS011;4479;51.162;13.906;2023-03-01T11:53:53;21.17;;;14.80;;
8885;SDS011;4479;51.162;13.906;2023-03-01T12:04:11;19.80;;;13.77;;
8885;SDS011;4479;51.162;13.906;2023-03-01T12:14:57;22.40;;;15.97;;
8885;SDS011;4479;51.162;13.906;2023-03-01T12:25:20;20.73;;;14.47;;
8885;SDS011;4479;51.162;13.906;2023-03-01T12:35:33;21.00;;;14.20;;
8885;SDS011;4479;51.162;13.906;2023-03-01T12:45:55;18.13;;;13.07;;
8885;SDS011;4479;51.162;13.906;2023-03-01T12:56:11;19.37;;;13.67;;
8885;SDS011;4479;51.162;13.906;2023-03-01T13:06:19;22.27;;;14.23;;
8885;SDS011;4479;51.162;13.906;2023-03-01T13:16:42;18.60;;;12.93;;
8885;SDS011;4479;51.162;13.906;2023-03-01T13:37:27;19.77;;;12.20;;
8885;SDS011;4479;51.162;13.906;2023-03-01T13:47:35;19.47;;;12.57;;
8885;SDS011;4479;51.162;13.906;2023-03-01T13:57:40;31.57;;;20.37;;
8885;SDS011;4479;51.162;13.906;2023-03-01T14:07:50;23.47;;;16.00;;
8885;SDS011;4479;51.162;13.906;2023-03-01T14:17:56;22.00;;;14.70;;
8885;SDS011;4479;51.162;13.906;2023-03-01T14:28:14;24.90;;;18.27;;
8885;SDS011;4479;51.162;13.906;2023-03-01T14:38:44;19.90;;;13.50;;
8885;SDS011;4479;51.162;13.906;2023-03-01T14:48:51;19.93;;;15.50;;
8885;SDS011;4479;51.162;13.906;2023-03-01T14:58:59;27.57;;;18.00;;
8885;SDS011;4479;51.162;13.906;2023-03-01T15:09:14;36.43;;;21.67;;
8885;SDS011;4479;51.162;13.906;2023-03-01T15:19:21;38.00;;;23.57;;
8885;SDS011;4479;51.162;13.906;2023-03-01T15:29:28;35.87;;;26.27;;
8885;SDS011;4479;51.162;13.906;2023-03-01T15:39:38;19.30;;;15.83;;
8885;SDS011;4479;51.162;13.906;2023-03-01T15:49:43;10.80;;;9.27;;
8885;SDS011;4479;51.162;13.906;2023-03-01T15:59:47;14.90;;;10.13;;
8885;SDS011;4479;51.162;13.906;2023-03-01T16:09:49;8.40;;;5.97;;
8885;SDS011;4479;51.162;13.906;2023-03-01T16:19:53;8.33;;;4.67;;
8885;SDS011;4479;51.162;13.906;2023-03-01T16:29:54;7.17;;;5.20;;
8885;SDS011;4479;51.162;13.906;2023-03-01T16:39:58;8.07;;;5.07;;
8885;SDS011;4479;51.162;13.906;2023-03-01T16:50:00;8.43;;;5.80;;
8885;SDS011;4479;51.162;13.906;2023-03-01T17:00:04;9.17;;;5.17;;
8885;SDS011;4479;51.162;13.906;2023-03-01T17:10:09;5.53;;;4.13;;
8885;SDS011;4479;51.162;13.906;2023-03-01T17:20:13;6.00;;;4.30;;
8885;SDS011;4479;51.162;13.906;2023-03-01T17:30:16;6.77;;;4.43;;
8885;SDS011;4479;51.162;13.906;2023-03-01T17:40:20;6.93;;;4.53;;
8885;SDS011;4479;51.162;13.906;2023-03-01T17:50:21;6.83;;;4.37;;
8885;SDS011;4479;51.162;13.906;2023-03-01T18:00:25;7.33;;;4.33;;
8885;SDS011;4479;51.162;13.906;2023-03-01T18:10:30;9.70;;;5.90;;
8885;SDS011;4479;51.162;13.906;2023-03-01T18:20:37;9.87;;;5.43;;
8885;SDS011;4479;51.162;13.906;2023-03-01T18:30:39;12.67;;;7.13;;
8885;SDS011;4479;51.162;13.906;2023-03-01T18:40:43;9.97;;;6.47;;
8885;SDS011;4479;51.162;13.906;2023-03-01T18:52:08;14.37;;;8.67;;
8885;SDS011;4479;51.162;13.906;2023-03-01T19:01:44;10.63;;;6.00;;
8885;SDS011;4479;51.162;13.906;2023-03-01T19:11:46;11.60;;;6.80;;
8885;SDS011;4479;51.162;13.906;2023-03-01T19:21:49;13.23;;;7.43;;
8885;SDS011;4479;51.162;13.906;2023-03-01T19:31:51;18.50;;;10.70;;
8885;SDS011;4479;51.162;13.906;2023-03-01T19:41:55;21.73;;;11.33;;
8885;SDS011;4479;51.162;13.906;2023-03-01T19:51:57;20.80;;;11.20;;
8885;SDS011;4479;51.162;13.906;2023-03-01T20:02:01;11.80;;;7.50;;
8885;SDS011;4479;51.162;13.906;2023-03-01T20:12:03;20.50;;;10.77;;
8885;SDS011;4479;51.162;13.906;2023-03-01T20:22:07;12.63;;;7.10;;
8885;SDS011;4479;51.162;13.906;2023-03-01T20:32:12;19.07;;;11.03;;
8885;SDS011;4479;51.162;13.906;2023-03-01T20:42:15;16.23;;;9.80;;
8885;SDS011;4479;51.162;13.906;2023-03-01T20:52:17;12.30;;;7.37;;
8885;SDS011;4479;51.162;13.906;2023-03-01T21:02:21;12.80;;;7.63;;
8885;SDS011;4479;51.162;13.906;2023-03-01T21:12:23;11.90;;;7.10;;
8885;SDS011;4479;51.162;13.906;2023-03-01T21:22:26;14.93;;;8.30;;
8885;SDS011;4479;51.162;13.906;2023-03-01T21:32:31;15.17;;;9.23;;
8885;SDS011;4479;51.162;13.906;2023-03-01T21:42:35;13.60;;;7.97;;
8885;SDS011;4479;51.162;13.906;2023-03-01T21:52:38;13.60;;;8.07;;
8885;SDS011;4479;51.162;13.906;2023-03-01T22:02:41;12.60;;;7.40;;
8885;SDS011;4479;51.162;13.906;2023-03-01T22:12:43;14.20;;;7.97;;
8885;SDS011;4479;51.162;13.906;2023-03-01T22:22:47;14.27;;;8.13;;
8885;SDS011;4479;51.162;13.906;2023-03-01T22:32:49;13.43;;;7.97;;
8885;SDS011;4479;51.162;13.906;2023-03-01T22:42:52;17.10;;;9.33;;
8885;SDS011;4479;51.162;13.906;2023-03-01T22:52:56;20.03;;;10.40;;
8885;SDS011;4479;51.162;13.906;2023-03-01T23:03:01;19.43;;;9.90;;
8885;SDS011;4479;51.162;13.906;2023-03-01T23:13:03;15.77;;;9.10;;
8885;SDS011;4479;51.162;13.906;2023-03-01T23:23:07;17.07;;;8.97;;
8885;SDS011;4479;51.162;13.906;2023-03-01T23:33:09;13.27;;;8.00;;
8885;SDS011;4479;51.162;13.906;2023-03-01T23:43:13;14.13;;;8.13;;
8885;SDS011;4479;51.162;13.906;2023-03-01T23:53:15;12.93;;;7.90;;
